sensor_id;sensor_type;location;lat;lon;timestamp;temperature;humidity
12588;DHT22;6359;51.450;7.346;2023-02-27T00:02:06;-3.60;99.90
12588;DHT22;6359;51.450;7.346;2023-02-27T00:04:33;-3.60;99.90
12588;DHT22;6359;51.450;7.346;2023-02-27T00:07:00;-3.50;99.90
12588;DHT22;6359;51.450;7.346;2023-02-27T00:09:27;-3.50;99.90
12588;DHT22;6359;51.450;7.346;2023-02-27T00:11:56;-3.50;99.90
12588;DHT22;6359;51.450;7.346;2023-02-27T00:14:23;-3.60;99.90
12588;DHT22;6359;51.450;7.346;2023-02-27T00:16:50;-3.70;99.90
12588;DHT22;6359;51.450;7.346;2023-02-27T00:19:17;-3.70;99.90
12588;DHT22;6359;51.450;7.346;2023-02-27T00:21:46;-3.70;99.90
12588;DHT22;6359;51.450;7.346;2023-02-27T00:24:13;-3.70;99.90
12588;DHT22;6359;51.450;7.346;2023-02-27T00:26:40;-3.60;99.90
12588;DHT22;6359;51.450;7.346;2023-02-27T00:29:08;-3.50;99.90
12588;DHT22;6359;51.450;7.346;2023-02-27T00:31:35;-3.50;99.90
12588;DHT22;6359;51.450;7.346;2023-02-27T00:34:02;-3.40;99.90
12588;DHT22;6359;51.450;7.346;2023-02-27T00:36:29;-3.40;99.90
12588;DHT22;6359;51.450;7.346;2023-02-27T00:38:56;-3.30;99.90
12588;DHT22;6359;51.450;7.346;2023-02-27T00:41:23;-3.40;99.90
12588;DHT22;6359;51.450;7.346;2023-02-27T00:43:50;-3.40;99.90
12588;DHT22;6359;51.450;7.346;2023-02-27T00:46:18;-3.50;99.90
12588;DHT22;6359;51.450;7.346;2023-02-27T00:48:45;-3.40;99.90
12588;DHT22;6359;51.450;7.346;2023-02-27T00:51:12;-3.30;99.90
12588;DHT22;6359;51.450;7.346;2023-02-27T00:53:39;-3.30;99.90
12588;DHT22;6359;51.450;7.346;2023-02-27T00:56:07;-3.40;99.90
12588;DHT22;6359;51.450;7.346;2023-02-27T00:58:34;-3.50;99.90
12588;DHT22;6359;51.450;7.346;2023-02-27T01:01:01;-3.60;99.90
12588;DHT22;6359;51.450;7.346;2023-02-27T01:03:29;-3.70;99.90
12588;DHT22;6359;51.450;7.346;2023-02-27T01:05:56;-3.80;99.90
12588;DHT22;6359;51.450;7.346;2023-02-27T01:08:23;-3.80;99.90
12588;DHT22;6359;51.450;7.346;2023-02-27T01:10:52;-3.90;99.90
12588;DHT22;6359;51.450;7.346;2023-02-27T01:13:19;-3.90;99.90
12588;DHT22;6359;51.450;7.346;2023-02-27T01:15:46;-3.90;99.90
12588;DHT22;6359;51.450;7.346;2023-02-27T01:18:13;-3.90;99.90
12588;DHT22;6359;51.450;7.346;2023-02-27T01:20:41;-3.80;99.90
12588;DHT22;6359;51.450;7.346;2023-02-27T01:23:08;-3.70;99.90
12588;DHT22;6359;51.450;7.346;2023-02-27T01:25:35;-3.60;99.90
12588;DHT22;6359;51.450;7.346;2023-02-27T01:28:02;-3.70;99.90
12588;DHT22;6359;51.450;7.346;2023-02-27T01:30:29;-3.70;99.90
12588;DHT22;6359;51.450;7.346;2023-02-27T01:32:56;-3.70;99.90
12588;DHT22;6359;51.450;7.346;2023-02-27T01:35:23;-3.60;99.90
12588;DHT22;6359;51.450;7.346;2023-02-27T01:37:51;-3.50;99.90
12588;DHT22;6359;51.450;7.346;2023-02-27T01:40:19;-3.40;99.90
12588;DHT22;6359;51.450;7.346;2023-02-27T01:42:46;-3.30;99.90
12588;DHT22;6359;51.450;7.346;2023-02-27T01:45:31;-3.30;99.90
12588;DHT22;6359;51.450;7.346;2023-02-27T01:48:04;-3.40;99.90
12588;DHT22;6359;51.450;7.346;2023-02-27T01:50:32;-3.50;99.90
12588;DHT22;6359;51.450;7.346;2023-02-27T01:53:02;-3.50;99.90
12588;DHT22;6359;51.450;7.346;2023-02-27T01:55:34;-3.60;99.90
12588;DHT22;6359;51.450;7.346;2023-02-27T01:58:03;-3.70;99.90
12588;DHT22;6359;51.450;7.346;2023-02-27T02:00:30;-3.80;99.90
12588;DHT22;6359;51.450;7.346;2023-02-27T02:03:07;-3.90;99.90
12588;DHT22;6359;51.450;7.346;2023-02-27T02:05:35;-4.00;99.90
12588;DHT22;6359;51.450;7.346;2023-02-27T02:08:04;-4.10;99.90
12588;DHT22;6359;51.450;7.346;2023-02-27T02:10:32;-4.20;99.90
12588;DHT22;6359;51.450;7.346;2023-02-27T02:12:59;-4.30;99.90
12588;DHT22;6359;51.450;7.346;2023-02-27T02:15:31;-4.30;99.90
12588;DHT22;6359;51.450;7.346;2023-02-27T02:18:07;-4.40;99.90
12588;DHT22;6359;51.450;7.346;2023-02-27T02:21:04;-4.40;99.90
12588;DHT22;6359;51.450;7.346;2023-02-27T02:24:15;-4.50;99.90
12588;DHT22;6359;51.450;7.346;2023-02-27T02:26:55;-4.50;99.90
12588;DHT22;6359;51.450;7.346;2023-02-27T02:38:58;-4.60;99.90
12588;DHT22;6359;51.450;7.346;2023-02-27T02:41:37;-4.60;99.90
12588;DHT22;6359;51.450;7.346;2023-02-27T02:44:16;-4.70;99.90
12588;DHT22;6359;51.450;7.346;2023-02-27T02:46:48;-4.70;99.90
12588;DHT22;6359;51.450;7.346;2023-02-27T02:49:22;-4.70;99.90
12588;DHT22;6359;51.450;7.346;2023-02-27T02:51:57;-4.70;99.90
12588;DHT22;6359;51.450;7.346;2023-02-27T02:54:35;-4.80;99.90
12588;DHT22;6359;51.450;7.346;2023-02-27T02:57:07;-4.80;99.90
12588;DHT22;6359;51.450;7.346;2023-02-27T02:59:40;-4.90;99.90
12588;DHT22;6359;51.450;7.346;2023-02-27T03:02:11;-4.90;99.90
12588;DHT22;6359;51.450;7.346;2023-02-27T03:04:43;-4.90;99.90
12588;DHT22;6359;51.450;7.346;2023-02-27T03:07:14;-4.90;99.90
12588;DHT22;6359;51.450;7.346;2023-02-27T03:09:46;-4.90;99.90
12588;DHT22;6359;51.450;7.346;2023-02-27T03:12:18;-5.00;99.90
12588;DHT22;6359;51.450;7.346;2023-02-27T03:14:51;-5.00;99.90
12588;DHT22;6359;51.450;7.346;2023-02-27T03:17:24;-5.00;99.90
12588;DHT22;6359;51.450;7.346;2023-02-27T03:19:55;-5.00;99.90
12588;DHT22;6359;51.450;7.346;2023-02-27T03:22:26;-5.00;99.90
12588;DHT22;6359;51.450;7.346;2023-02-27T03:24:59;-5.00;99.90
12588;DHT22;6359;51.450;7.346;2023-02-27T03:27:31;-4.90;99.90
12588;DHT22;6359;51.450;7.346;2023-02-27T03:30:03;-4.90;99.90
12588;DHT22;6359;51.450;7.346;2023-02-27T03:32:37;-4.80;99.90
12588;DHT22;6359;51.450;7.346;2023-02-27T03:35:07;-4.80;99.90
12588;DHT22;6359;51.450;7.346;2023-02-27T03:37:41;-4.80;99.90
12588;DHT22;6359;51.450;7.346;2023-02-27T03:40:19;-4.80;99.90
12588;DHT22;6359;51.450;7.346;2023-02-27T03:42:53;-4.80;99.90
12588;DHT22;6359;51.450;7.346;2023-02-27T03:45:31;-4.80;99.90
12588;DHT22;6359;51.450;7.346;2023-02-27T03:48:01;-4.80;99.90
12588;DHT22;6359;51.450;7.346;2023-02-27T03:50:28;-4.90;99.90
12588;DHT22;6359;51.450;7.346;2023-02-27T03:52:55;-4.90;99.90
12588;DHT22;6359;51.450;7.346;2023-02-27T03:55:31;-5.00;99.90
12588;DHT22;6359;51.450;7.346;2023-02-27T03:57:59;-4.80;99.90
12588;DHT22;6359;51.450;7.346;2023-02-27T04:00:27;-4.80;99.90
12588;DHT22;6359;51.450;7.346;2023-02-27T04:02:57;-4.70;99.90
12588;DHT22;6359;51.450;7.346;2023-02-27T04:05:26;-4.80;99.90
12588;DHT22;6359;51.450;7.346;2023-02-27T04:08:04;-4.80;99.90
12588;DHT22;6359;51.450;7.346;2023-02-27T04:10:49;-4.80;99.90
12588;DHT22;6359;51.450;7.346;2023-02-27T04:13:46;-4.90;99.90
12588;DHT22;6359;51.450;7.346;2023-02-27T04:16:47;-4.90;99.90
12588;DHT22;6359;51.450;7.346;2023-02-27T04:19:27;-4.80;99.90
12588;DHT22;6359;51.450;7.346;2023-02-27T04:22:06;-4.80;99.90
12588;DHT22;6359;51.450;7.346;2023-02-27T04:24:43;-4.80;99.90
12588;DHT22;6359;51.450;7.346;2023-02-27T04:27:19;-5.00;99.90
12588;DHT22;6359;51.450;7.346;2023-02-27T04:29:54;-5.10;99.90
12588;DHT22;6359;51.450;7.346;2023-02-27T04:32:25;-5.20;99.90
12588;DHT22;6359;51.450;7.346;2023-02-27T04:34:57;-5.20;99.90
12588;DHT22;6359;51.450;7.346;2023-02-27T04:37:28;-5.20;99.90
12588;DHT22;6359;51.450;7.346;2023-02-27T04:39:59;-5.30;99.90
12588;DHT22;6359;51.450;7.346;2023-02-27T04:42:33;-5.30;99.90
12588;DHT22;6359;51.450;7.346;2023-02-27T04:45:04;-5.30;99.90
12588;DHT22;6359;51.450;7.346;2023-02-27T04:47:37;-5.40;99.90
12588;DHT22;6359;51.450;7.346;2023-02-27T04:50:09;-5.40;99.90
12588;DHT22;6359;51.450;7.346;2023-02-27T04:52:40;-5.40;99.90
12588;DHT22;6359;51.450;7.346;2023-02-27T04:55:12;-5.30;99.90
12588;DHT22;6359;51.450;7.346;2023-02-27T04:57:47;-5.30;99.90
12588;DHT22;6359;51.450;7.346;2023-02-27T05:00:16;-5.30;99.90
12588;DHT22;6359;51.450;7.346;2023-02-27T05:02:48;-5.40;99.90
12588;DHT22;6359;51.450;7.346;2023-02-27T05:05:20;-5.30;99.90
12588;DHT22;6359;51.450;7.346;2023-02-27T05:07:52;-5.20;99.90
12588;DHT22;6359;51.450;7.346;2023-02-27T05:10:27;-5.20;99.90
12588;DHT22;6359;51.450;7.346;2023-02-27T05:13:00;-5.30;99.90
12588;DHT22;6359;51.450;7.346;2023-02-27T05:15:30;-5.40;99.90
12588;DHT22;6359;51.450;7.346;2023-02-27T05:18:01;-5.50;99.90
12588;DHT22;6359;51.450;7.346;2023-02-27T05:20:31;-5.50;99.90
12588;DHT22;6359;51.450;7.346;2023-02-27T05:23:07;-5.50;99.90
12588;DHT22;6359;51.450;7.346;2023-02-27T05:25:45;-5.60;99.90
12588;DHT22;6359;51.450;7.346;2023-02-27T05:28:18;-5.60;99.90
12588;DHT22;6359;51.450;7.346;2023-02-27T05:30:51;-5.60;99.90
12588;DHT22;6359;51.450;7.346;2023-02-27T05:33:25;-5.60;99.90
12588;DHT22;6359;51.450;7.346;2023-02-27T05:35:56;-5.60;99.90
12588;DHT22;6359;51.450;7.346;2023-02-27T05:38:28;-5.50;99.90
12588;DHT22;6359;51.450;7.346;2023-02-27T05:41:01;-5.40;99.90
12588;DHT22;6359;51.450;7.346;2023-02-27T05:43:33;-5.30;99.90
12588;DHT22;6359;51.450;7.346;2023-02-27T05:46:04;-5.30;99.90
12588;DHT22;6359;51.450;7.346;2023-02-27T05:48:35;-5.30;99.90
12588;DHT22;6359;51.450;7.346;2023-02-27T05:51:06;-5.40;99.90
12588;DHT22;6359;51.450;7.346;2023-02-27T05:53:38;-5.40;99.90
12588;DHT22;6359;51.450;7.346;2023-02-27T05:56:07;-5.50;99.90
12588;DHT22;6359;51.450;7.346;2023-02-27T05:58:40;-5.50;99.90
12588;DHT22;6359;51.450;7.346;2023-02-27T06:01:08;-5.50;99.90
12588;DHT22;6359;51.450;7.346;2023-02-27T06:03:37;-5.60;99.90
12588;DHT22;6359;51.450;7.346;2023-02-27T06:06:06;-5.60;99.90
12588;DHT22;6359;51.450;7.346;2023-02-27T06:08:34;-5.60;99.90
12588;DHT22;6359;51.450;7.346;2023-02-27T06:11:01;-5.70;99.90
12588;DHT22;6359;51.450;7.346;2023-02-27T06:13:28;-5.70;99.90
12588;DHT22;6359;51.450;7.346;2023-02-27T06:15:57;-5.60;99.90
12588;DHT22;6359;51.450;7.346;2023-02-27T06:18:23;-5.60;99.90
12588;DHT22;6359;51.450;7.346;2023-02-27T06:20:50;-5.60;99.90
12588;DHT22;6359;51.450;7.346;2023-02-27T06:23:17;-5.60;99.90
12588;DHT22;6359;51.450;7.346;2023-02-27T06:25:44;-5.50;99.90
12588;DHT22;6359;51.450;7.346;2023-02-27T06:28:11;-5.40;99.90
12588;DHT22;6359;51.450;7.346;2023-02-27T06:30:38;-5.50;99.90
12588;DHT22;6359;51.450;7.346;2023-02-27T06:33:07;-5.40;99.90
12588;DHT22;6359;51.450;7.346;2023-02-27T06:35:34;-5.50;99.90
12588;DHT22;6359;51.450;7.346;2023-02-27T06:38:01;-5.30;99.90
12588;DHT22;6359;51.450;7.346;2023-02-27T06:40:28;-5.10;99.90
12588;DHT22;6359;51.450;7.346;2023-02-27T06:42:55;-5.00;99.90
12588;DHT22;6359;51.450;7.346;2023-02-27T06:45:22;-4.80;99.90
12588;DHT22;6359;51.450;7.346;2023-02-27T06:47:49;-4.70;99.90
12588;DHT22;6359;51.450;7.346;2023-02-27T06:50:18;-4.70;99.90
12588;DHT22;6359;51.450;7.346;2023-02-27T06:52:45;-4.70;99.90
12588;DHT22;6359;51.450;7.346;2023-02-27T06:55:12;-4.70;99.90
12588;DHT22;6359;51.450;7.346;2023-02-27T06:57:44;-4.70;99.90
12588;DHT22;6359;51.450;7.346;2023-02-27T07:00:13;-4.50;99.90
12588;DHT22;6359;51.450;7.346;2023-02-27T07:02:41;-4.60;99.90
12588;DHT22;6359;51.450;7.346;2023-02-27T07:05:08;-4.50;99.90
12588;DHT22;6359;51.450;7.346;2023-02-27T07:07:38;-4.40;99.90
12588;DHT22;6359;51.450;7.346;2023-02-27T07:10:06;-4.30;99.90
12588;DHT22;6359;51.450;7.346;2023-02-27T07:12:35;-4.30;99.90
12588;DHT22;6359;51.450;7.346;2023-02-27T07:15:03;-4.10;99.90
12588;DHT22;6359;51.450;7.346;2023-02-27T07:17:30;-3.90;99.90
12588;DHT22;6359;51.450;7.346;2023-02-27T07:19:57;-3.90;99.90
12588;DHT22;6359;51.450;7.346;2023-02-27T07:22:25;-3.80;99.90
12588;DHT22;6359;51.450;7.346;2023-02-27T07:24:53;-3.60;99.90
12588;DHT22;6359;51.450;7.346;2023-02-27T07:27:20;-3.50;99.90
12588;DHT22;6359;51.450;7.346;2023-02-27T07:29:47;-3.30;99.90
12588;DHT22;6359;51.450;7.346;2023-02-27T07:32:14;-3.10;99.90
12588;DHT22;6359;51.450;7.346;2023-02-27T07:34:41;-2.90;99.90
12588;DHT22;6359;51.450;7.346;2023-02-27T07:37:08;-2.70;99.90
12588;DHT22;6359;51.450;7.346;2023-02-27T07:39:35;-2.60;99.90
12588;DHT22;6359;51.450;7.346;2023-02-27T07:42:03;-2.40;99.90
12588;DHT22;6359;51.450;7.346;2023-02-27T07:44:30;-2.20;99.90
12588;DHT22;6359;51.450;7.346;2023-02-27T07:46:57;-2.10;99.90
12588;DHT22;6359;51.450;7.346;2023-02-27T07:49:24;-1.90;99.90
12588;DHT22;6359;51.450;7.346;2023-02-27T07:51:51;-1.70;99.90
12588;DHT22;6359;51.450;7.346;2023-02-27T07:54:18;-1.50;99.90
12588;DHT22;6359;51.450;7.346;2023-02-27T07:56:45;-1.40;99.90
12588;DHT22;6359;51.450;7.346;2023-02-27T07:59:14;-1.10;99.90
12588;DHT22;6359;51.450;7.346;2023-02-27T08:01:41;-0.90;99.90
12588;DHT22;6359;51.450;7.346;2023-02-27T08:04:08;-0.40;99.90
12588;DHT22;6359;51.450;7.346;2023-02-27T08:06:35;1.30;99.90
12588;DHT22;6359;51.450;7.346;2023-02-27T08:09:02;3.40;99.90
12588;DHT22;6359;51.450;7.346;2023-02-27T08:11:30;5.10;99.90
12588;DHT22;6359;51.450;7.346;2023-02-27T08:13:57;6.70;99.90
12588;DHT22;6359;51.450;7.346;2023-02-27T08:16:26;8.40;99.90
12588;DHT22;6359;51.450;7.346;2023-02-27T08:18:52;8.80;99.90
12588;DHT22;6359;51.450;7.346;2023-02-27T08:21:19;9.30;99.90
12588;DHT22;6359;51.450;7.346;2023-02-27T08:23:46;9.90;99.90
12588;DHT22;6359;51.450;7.346;2023-02-27T08:26:13;9.80;99.90
12588;DHT22;6359;51.450;7.346;2023-02-27T08:28:40;10.60;99.90
12588;DHT22;6359;51.450;7.346;2023-02-27T08:31:07;10.70;99.90
12588;DHT22;6359;51.450;7.346;2023-02-27T08:33:35;11.30;99.90
12588;DHT22;6359;51.450;7.346;2023-02-27T08:36:03;10.90;99.90
12588;DHT22;6359;51.450;7.346;2023-02-27T08:38:30;11.00;99.90
12588;DHT22;6359;51.450;7.346;2023-02-27T08:40:56;11.50;99.90
12588;DHT22;6359;51.450;7.346;2023-02-27T08:43:23;11.90;99.90
12588;DHT22;6359;51.450;7.346;2023-02-27T08:45:51;12.30;99.90
12588;DHT22;6359;51.450;7.346;2023-02-27T08:48:18;12.30;99.90
12588;DHT22;6359;51.450;7.346;2023-02-27T08:50:46;11.90;99.90
12588;DHT22;6359;51.450;7.346;2023-02-27T08:53:13;11.60;99.90
12588;DHT22;6359;51.450;7.346;2023-02-27T08:55:40;12.60;99.90
12588;DHT22;6359;51.450;7.346;2023-02-27T08:58:07;12.30;99.90
12588;DHT22;6359;51.450;7.346;2023-02-27T09:00:34;12.90;99.90
12588;DHT22;6359;51.450;7.346;2023-02-27T09:03:01;13.00;99.90
12588;DHT22;6359;51.450;7.346;2023-02-27T09:05:28;13.40;99.90
12588;DHT22;6359;51.450;7.346;2023-02-27T09:07:59;13.30;99.90
12588;DHT22;6359;51.450;7.346;2023-02-27T09:10:26;13.70;99.90
12588;DHT22;6359;51.450;7.346;2023-02-27T09:12:53;13.20;99.90
12588;DHT22;6359;51.450;7.346;2023-02-27T09:15:20;12.90;99.90
12588;DHT22;6359;51.450;7.346;2023-02-27T09:17:47;13.00;99.90
12588;DHT22;6359;51.450;7.346;2023-02-27T09:20:14;12.70;99.90
12588;DHT22;6359;51.450;7.346;2023-02-27T09:22:41;12.90;99.90
12588;DHT22;6359;51.450;7.346;2023-02-27T09:25:10;12.70;99.90
12588;DHT22;6359;51.450;7.346;2023-02-27T09:27:37;12.70;99.90
12588;DHT22;6359;51.450;7.346;2023-02-27T09:30:05;12.40;99.90
12588;DHT22;6359;51.450;7.346;2023-02-27T09:32:32;12.40;99.90
12588;DHT22;6359;51.450;7.346;2023-02-27T09:34:58;12.90;99.90
12588;DHT22;6359;51.450;7.346;2023-02-27T09:37:25;12.90;99.90
12588;DHT22;6359;51.450;7.346;2023-02-27T09:39:52;12.90;99.90
12588;DHT22;6359;51.450;7.346;2023-02-27T09:42:23;12.70;99.90
12588;DHT22;6359;51.450;7.346;2023-02-27T09:44:53;12.70;99.90
12588;DHT22;6359;51.450;7.346;2023-02-27T09:47:24;12.90;99.90
12588;DHT22;6359;51.450;7.346;2023-02-27T09:49:58;13.20;99.90
12588;DHT22;6359;51.450;7.346;2023-02-27T09:52:27;12.90;99.90
12588;DHT22;6359;51.450;7.346;2023-02-27T09:54:55;13.00;99.90
12588;DHT22;6359;51.450;7.346;2023-02-27T09:57:33;13.00;99.90
12588;DHT22;6359;51.450;7.346;2023-02-27T10:00:06;13.40;99.90
12588;DHT22;6359;51.450;7.346;2023-02-27T10:02:43;13.20;99.90
12588;DHT22;6359;51.450;7.346;2023-02-27T10:05:25;11.60;99.90
12588;DHT22;6359;51.450;7.346;2023-02-27T10:08:00;10.70;99.90
12588;DHT22;6359;51.450;7.346;2023-02-27T10:10:33;10.20;99.90
12588;DHT22;6359;51.450;7.346;2023-02-27T10:13:28;9.30;99.90
12588;DHT22;6359;51.450;7.346;2023-02-27T10:15:59;9.10;99.90
12588;DHT22;6359;51.450;7.346;2023-02-27T10:18:29;8.80;99.90
12588;DHT22;6359;51.450;7.346;2023-02-27T10:20:59;8.30;99.90
12588;DHT22;6359;51.450;7.346;2023-02-27T10:23:33;8.70;99.90
12588;DHT22;6359;51.450;7.346;2023-02-27T10:26:02;8.80;99.90
12588;DHT22;6359;51.450;7.346;2023-02-27T10:28:32;8.80;99.90
12588;DHT22;6359;51.450;7.346;2023-02-27T10:30:59;8.50;99.90
12588;DHT22;6359;51.450;7.346;2023-02-27T10:33:31;8.20;99.90
12588;DHT22;6359;51.450;7.346;2023-02-27T10:35:59;7.60;99.90
12588;DHT22;6359;51.450;7.346;2023-02-27T10:38:31;7.30;99.90
12588;DHT22;6359;51.450;7.346;2023-02-27T10:41:00;7.60;99.90
12588;DHT22;6359;51.450;7.346;2023-02-27T10:43:27;7.00;99.90
12588;DHT22;6359;51.450;7.346;2023-02-27T10:46:00;7.00;99.90
12588;DHT22;6359;51.450;7.346;2023-02-27T10:48:27;7.50;99.90
12588;DHT22;6359;51.450;7.346;2023-02-27T10:51:21;8.40;99.90
12588;DHT22;6359;51.450;7.346;2023-02-27T10:53:50;9.30;99.90
12588;DHT22;6359;51.450;7.346;2023-02-27T10:56:23;10.00;99.90
12588;DHT22;6359;51.450;7.346;2023-02-27T10:59:02;10.50;99.90
12588;DHT22;6359;51.450;7.346;2023-02-27T11:01:42;11.40;99.90
12588;DHT22;6359;51.450;7.346;2023-02-27T11:04:13;11.80;99.90
12588;DHT22;6359;51.450;7.346;2023-02-27T11:06:41;12.00;99.90
12588;DHT22;6359;51.450;7.346;2023-02-27T11:09:18;12.10;99.90
12588;DHT22;6359;51.450;7.346;2023-02-27T11:11:46;12.70;99.90
12588;DHT22;6359;51.450;7.346;2023-02-27T11:14:25;9.80;99.90
12588;DHT22;6359;51.450;7.346;2023-02-27T11:16:56;9.00;99.90
12588;DHT22;6359;51.450;7.346;2023-02-27T11:19:28;8.10;99.90
12588;DHT22;6359;51.450;7.346;2023-02-27T11:22:01;8.20;99.90
12588;DHT22;6359;51.450;7.346;2023-02-27T11:24:29;9.50;99.90
12588;DHT22;6359;51.450;7.346;2023-02-27T11:26:57;9.90;99.90
12588;DHT22;6359;51.450;7.346;2023-02-27T11:29:25;9.10;99.90
12588;DHT22;6359;51.450;7.346;2023-02-27T11:31:55;9.00;99.90
12588;DHT22;6359;51.450;7.346;2023-02-27T11:34:26;9.40;99.90
12588;DHT22;6359;51.450;7.346;2023-02-27T11:36:57;9.20;99.90
12588;DHT22;6359;51.450;7.346;2023-02-27T11:39:29;9.00;99.90
12588;DHT22;6359;51.450;7.346;2023-02-27T11:42:04;8.40;99.90
12588;DHT22;6359;51.450;7.346;2023-02-27T11:44:33;8.10;99.90
12588;DHT22;6359;51.450;7.346;2023-02-27T11:47:14;8.40;99.90
12588;DHT22;6359;51.450;7.346;2023-02-27T11:49:55;8.20;99.90
12588;DHT22;6359;51.450;7.346;2023-02-27T11:52:28;8.80;99.90
12588;DHT22;6359;51.450;7.346;2023-02-27T11:55:00;9.10;99.90
12588;DHT22;6359;51.450;7.346;2023-02-27T11:57:32;9.00;99.90
12588;DHT22;6359;51.450;7.346;2023-02-27T12:00:05;9.30;99.90
12588;DHT22;6359;51.450;7.346;2023-02-27T12:02:42;9.40;99.90
12588;DHT22;6359;51.450;7.346;2023-02-27T12:05:16;9.20;99.90
12588;DHT22;6359;51.450;7.346;2023-02-27T12:07:48;8.80;99.90
12588;DHT22;6359;51.450;7.346;2023-02-27T12:10:19;8.50;99.90
12588;DHT22;6359;51.450;7.346;2023-02-27T12:12:49;6.80;99.90
12588;DHT22;6359;51.450;7.346;2023-02-27T12:15:22;6.90;99.90
12588;DHT22;6359;51.450;7.346;2023-02-27T12:18:02;6.00;99.90
12588;DHT22;6359;51.450;7.346;2023-02-27T12:20:34;6.40;99.90
12588;DHT22;6359;51.450;7.346;2023-02-27T12:25:51;6.90;99.90
12588;DHT22;6359;51.450;7.346;2023-02-27T12:28:42;6.90;99.90
12588;DHT22;6359;51.450;7.346;2023-02-27T12:34:07;5.90;99.90
12588;DHT22;6359;51.450;7.346;2023-02-27T12:36:36;6.60;99.90
12588;DHT22;6359;51.450;7.346;2023-02-27T12:39:03;7.20;99.90
12588;DHT22;6359;51.450;7.346;2023-02-27T12:41:40;7.40;99.90
12588;DHT22;6359;51.450;7.346;2023-02-27T12:44:27;7.10;99.90
12588;DHT22;6359;51.450;7.346;2023-02-27T12:47:09;7.00;99.90
12588;DHT22;6359;51.450;7.346;2023-02-27T12:49:43;7.00;99.90
12588;DHT22;6359;51.450;7.346;2023-02-27T12:52:21;6.60;99.90
12588;DHT22;6359;51.450;7.346;2023-02-27T12:54:58;6.50;99.90
12588;DHT22;6359;51.450;7.346;2023-02-27T12:57:34;6.30;99.90
12588;DHT22;6359;51.450;7.346;2023-02-27T13:00:10;6.40;99.90
12588;DHT22;6359;51.450;7.346;2023-02-27T13:02:55;6.20;99.90
12588;DHT22;6359;51.450;7.346;2023-02-27T13:05:40;5.80;99.90
12588;DHT22;6359;51.450;7.346;2023-02-27T13:08:22;5.70;99.90
12588;DHT22;6359;51.450;7.346;2023-02-27T13:10:58;5.60;99.90
12588;DHT22;6359;51.450;7.346;2023-02-27T13:13:35;5.40;99.90
12588;DHT22;6359;51.450;7.346;2023-02-27T13:16:09;5.30;99.90
12588;DHT22;6359;51.450;7.346;2023-02-27T13:18:41;5.60;99.90
12588;DHT22;6359;51.450;7.346;2023-02-27T13:21:14;6.30;99.90
12588;DHT22;6359;51.450;7.346;2023-02-27T13:23:54;6.80;99.90
12588;DHT22;6359;51.450;7.346;2023-02-27T13:26:26;7.10;99.90
12588;DHT22;6359;51.450;7.346;2023-02-27T13:28:54;6.60;99.90
12588;DHT22;6359;51.450;7.346;2023-02-27T13:31:29;6.30;99.90
12588;DHT22;6359;51.450;7.346;2023-02-27T13:34:06;5.80;99.90
12588;DHT22;6359;51.450;7.346;2023-02-27T13:36:43;5.50;99.90
12588;DHT22;6359;51.450;7.346;2023-02-27T13:39:39;5.30;99.90
12588;DHT22;6359;51.450;7.346;2023-02-27T13:48:42;6.60;99.90
12588;DHT22;6359;51.450;7.346;2023-02-27T13:54:25;6.70;99.90
12588;DHT22;6359;51.450;7.346;2023-02-27T13:57:16;6.70;99.90
12588;DHT22;6359;51.450;7.346;2023-02-27T13:59:54;6.60;99.90
12588;DHT22;6359;51.450;7.346;2023-02-27T14:02:43;6.10;99.90
12588;DHT22;6359;51.450;7.346;2023-02-27T14:05:13;6.20;99.90
12588;DHT22;6359;51.450;7.346;2023-02-27T14:07:57;6.30;99.90
12588;DHT22;6359;51.450;7.346;2023-02-27T14:10:28;6.60;99.90
12588;DHT22;6359;51.450;7.346;2023-02-27T14:12:56;6.90;99.90
12588;DHT22;6359;51.450;7.346;2023-02-27T14:15:55;6.70;99.90
12588;DHT22;6359;51.450;7.346;2023-02-27T14:18:51;6.60;99.90
12588;DHT22;6359;51.450;7.346;2023-02-27T14:21:56;6.60;99.90
12588;DHT22;6359;51.450;7.346;2023-02-27T14:24:30;6.70;99.90
12588;DHT22;6359;51.450;7.346;2023-02-27T14:27:03;6.80;99.90
12588;DHT22;6359;51.450;7.346;2023-02-27T14:29:32;6.60;99.90
12588;DHT22;6359;51.450;7.346;2023-02-27T14:32:02;6.20;99.90
12588;DHT22;6359;51.450;7.346;2023-02-27T14:34:31;6.00;99.90
12588;DHT22;6359;51.450;7.346;2023-02-27T14:37:04;5.70;99.90
12588;DHT22;6359;51.450;7.346;2023-02-27T14:39:33;5.50;99.90
12588;DHT22;6359;51.450;7.346;2023-02-27T14:42:28;5.60;99.90
12588;DHT22;6359;51.450;7.346;2023-02-27T14:44:58;6.00;99.90
12588;DHT22;6359;51.450;7.346;2023-02-27T14:47:28;6.10;99.90
12588;DHT22;6359;51.450;7.346;2023-02-27T14:49:56;6.20;99.90
12588;DHT22;6359;51.450;7.346;2023-02-27T14:52:25;6.00;99.90
12588;DHT22;6359;51.450;7.346;2023-02-27T14:55:16;5.80;99.90
12588;DHT22;6359;51.450;7.346;2023-02-27T14:57:54;5.70;99.90
12588;DHT22;6359;51.450;7.346;2023-02-27T15:00:32;5.70;99.90
12588;DHT22;6359;51.450;7.346;2023-02-27T15:03:00;5.70;99.90
12588;DHT22;6359;51.450;7.346;2023-02-27T15:05:33;5.70;99.90
12588;DHT22;6359;51.450;7.346;2023-02-27T15:08:01;5.60;99.90
12588;DHT22;6359;51.450;7.346;2023-02-27T15:10:29;5.70;99.90
12588;DHT22;6359;51.450;7.346;2023-02-27T15:12:59;5.60;99.90
12588;DHT22;6359;51.450;7.346;2023-02-27T15:15:26;5.50;99.90
12588;DHT22;6359;51.450;7.346;2023-02-27T15:17:54;5.30;99.90
12588;DHT22;6359;51.450;7.346;2023-02-27T15:20:27;5.20;99.90
12588;DHT22;6359;51.450;7.346;2023-02-27T15:22:55;5.10;99.90
12588;DHT22;6359;51.450;7.346;2023-02-27T15:25:27;4.90;99.90
12588;DHT22;6359;51.450;7.346;2023-02-27T15:27:56;4.80;99.90
12588;DHT22;6359;51.450;7.346;2023-02-27T15:30:26;4.90;99.90
12588;DHT22;6359;51.450;7.346;2023-02-27T15:32:53;5.20;99.90
12588;DHT22;6359;51.450;7.346;2023-02-27T15:35:23;5.40;99.90
12588;DHT22;6359;51.450;7.346;2023-02-27T15:37:53;5.50;99.90
12588;DHT22;6359;51.450;7.346;2023-02-27T15:40:22;5.50;99.90
12588;DHT22;6359;51.450;7.346;2023-02-27T15:42:51;5.50;99.90
12588;DHT22;6359;51.450;7.346;2023-02-27T15:45:20;5.50;99.90
12588;DHT22;6359;51.450;7.346;2023-02-27T15:47:49;5.50;99.90
12588;DHT22;6359;51.450;7.346;2023-02-27T15:50:25;5.50;99.90
12588;DHT22;6359;51.450;7.346;2023-02-27T15:52:57;5.60;99.90
12588;DHT22;6359;51.450;7.346;2023-02-27T15:55:28;5.70;99.90
12588;DHT22;6359;51.450;7.346;2023-02-27T15:57:55;5.70;99.90
12588;DHT22;6359;51.450;7.346;2023-02-27T16:00:22;5.60;99.90
12588;DHT22;6359;51.450;7.346;2023-02-27T16:02:54;5.30;99.90
12588;DHT22;6359;51.450;7.346;2023-02-27T16:05:23;5.10;99.90
12588;DHT22;6359;51.450;7.346;2023-02-27T16:07:51;5.10;99.90
12588;DHT22;6359;51.450;7.346;2023-02-27T16:10:23;5.10;99.90
12588;DHT22;6359;51.450;7.346;2023-02-27T16:12:50;5.00;99.90
12588;DHT22;6359;51.450;7.346;2023-02-27T16:15:23;5.00;99.90
12588;DHT22;6359;51.450;7.346;2023-02-27T16:17:59;4.90;99.90
12588;DHT22;6359;51.450;7.346;2023-02-27T16:20:39;4.80;99.90
12588;DHT22;6359;51.450;7.346;2023-02-27T16:23:15;4.70;99.90
12588;DHT22;6359;51.450;7.346;2023-02-27T16:25:57;4.60;99.90
12588;DHT22;6359;51.450;7.346;2023-02-27T16:28:28;4.60;99.90
12588;DHT22;6359;51.450;7.346;2023-02-27T16:30:55;4.60;99.90
12588;DHT22;6359;51.450;7.346;2023-02-27T16:33:23;4.50;99.90
12588;DHT22;6359;51.450;7.346;2023-02-27T16:36:06;4.50;99.90
12588;DHT22;6359;51.450;7.346;2023-02-27T16:38:36;4.50;99.90
12588;DHT22;6359;51.450;7.346;2023-02-27T16:41:03;4.40;99.90
12588;DHT22;6359;51.450;7.346;2023-02-27T16:43:30;4.40;99.90
12588;DHT22;6359;51.450;7.346;2023-02-27T16:45:57;4.30;99.90